createdAt,value
2022-09-24T00:01:34.501Z,6.07
2022-09-24T00:04:04.639Z,5.63
2022-09-24T00:06:37.721Z,6.38
2022-09-24T00:09:04.527Z,5.97
2022-09-24T00:11:32.009Z,5.97
2022-09-24T00:13:59.392Z,5.95
2022-09-24T00:16:30.379Z,6.10
2022-09-24T00:18:58.368Z,6.00
2022-09-24T00:21:28.042Z,6.15
2022-09-24T00:23:57.250Z,6.95
2022-09-24T00:26:42.648Z,6.18
2022-09-24T00:29:10.400Z,6.53
2022-09-24T00:31:37.161Z,5.97
2022-09-24T00:34:04.044Z,6.50
2022-09-24T00:36:30.940Z,6.38
2022-09-24T00:38:59.246Z,5.93
2022-09-24T00:41:29.401Z,6.15
2022-09-24T00:43:56.029Z,6.45
2022-09-24T00:46:34.249Z,7.43
2022-09-24T00:49:06.194Z,7.45
2022-09-24T00:51:33.632Z,10.32
2022-09-24T00:54:05.701Z,11.57
2022-09-24T00:56:36.488Z,11.07
2022-09-24T00:59:04.435Z,11.07
2022-09-24T01:01:30.832Z,9.23
2022-09-24T01:03:59.208Z,9.25
2022-09-24T01:06:26.188Z,9.30
2022-09-24T01:08:54.860Z,9.30
2022-09-24T01:11:36.339Z,8.98
2022-09-24T01:14:05.547Z,8.43
2022-09-24T01:17:02.895Z,7.68
2022-09-24T01:19:35.173Z,7.43
2022-09-24T01:22:26.455Z,7.30
2022-09-24T01:25:01.675Z,7.22
2022-09-24T01:27:49.533Z,7.43
2022-09-24T01:30:15.939Z,8.13
2022-09-24T01:32:49.505Z,8.00
2022-09-24T01:35:22.148Z,7.25
2022-09-24T01:38:01.193Z,8.13
2022-09-24T01:40:30.178Z,8.30
2022-09-24T01:42:59.066Z,7.57
2022-09-24T01:45:31.802Z,8.45
2022-09-24T01:48:01.208Z,8.00
2022-09-24T01:50:30.978Z,7.50
2022-09-24T01:53:31.750Z,8.43
2022-09-24T01:56:05.258Z,7.55
2022-09-24T01:58:58.667Z,7.97
2022-09-24T02:01:34.998Z,8.18
2022-09-24T02:04:09.155Z,8.25
2022-09-24T02:06:41.741Z,8.27
2022-09-24T02:09:38.408Z,8.45
2022-09-24T02:12:26.472Z,8.43
2022-09-24T02:15:02.877Z,7.85
2022-09-24T02:17:33.561Z,8.18
2022-09-24T02:20:02.785Z,8.52
2022-09-24T02:22:30.983Z,8.32
2022-09-24T02:25:00.662Z,9.05
2022-09-24T02:27:30.564Z,8.23
2022-09-24T02:29:58.730Z,9.73
2022-09-24T02:32:27.946Z,9.32
2022-09-24T02:35:01.247Z,9.20
2022-09-24T02:37:27.566Z,9.68
2022-09-24T02:39:53.875Z,9.57
2022-09-24T02:42:21.757Z,8.68
2022-09-24T02:44:48.333Z,8.85
2022-09-24T02:47:14.648Z,8.82
2022-09-24T02:49:40.986Z,9.65
2022-09-24T02:52:07.382Z,9.95
2022-09-24T02:54:34.234Z,10.43
2022-09-24T02:57:00.548Z,10.82
2022-09-24T02:59:26.837Z,11.07
2022-09-24T03:01:53.286Z,11.52
2022-09-24T03:04:19.734Z,10.38
2022-09-24T03:06:46.032Z,10.15
2022-09-24T03:09:13.094Z,10.27
2022-09-24T03:11:39.937Z,10.90
2022-09-24T03:14:06.366Z,9.73
2022-09-24T03:16:33.542Z,10.65
2022-09-24T03:19:00.189Z,10.60
2022-09-24T03:21:26.552Z,11.00
2022-09-24T03:23:52.853Z,10.73
2022-09-24T03:26:19.269Z,10.82
2022-09-24T03:28:45.879Z,10.27
2022-09-24T03:31:12.978Z,10.63
2022-09-24T03:33:41.687Z,10.65
2022-09-24T03:41:14.584Z,9.55
2022-09-24T03:43:41.449Z,11.27
2022-09-24T03:46:09.421Z,11.50
2022-09-24T03:48:37.138Z,11.10
2022-09-24T03:51:05.900Z,11.43
2022-09-24T03:53:33.023Z,12.35
2022-09-24T03:56:02.261Z,13.15
2022-09-24T03:58:31.140Z,12.52
2022-09-24T04:00:57.888Z,11.20
2022-09-24T04:03:24.992Z,11.20
2022-09-24T04:05:51.687Z,10.48
2022-09-24T04:08:19.781Z,12.10
2022-09-24T04:10:46.897Z,12.95
2022-09-24T04:13:13.703Z,12.38
2022-09-24T04:15:40.099Z,13.85
2022-09-24T04:18:06.780Z,13.60
2022-09-24T04:20:33.839Z,12.48
2022-09-24T04:23:01.094Z,13.82
2022-09-24T04:25:32.801Z,14.15
2022-09-24T04:28:01.669Z,13.13
2022-09-24T04:30:29.549Z,13.52
2022-09-24T04:32:56.596Z,12.02
2022-09-24T04:35:23.454Z,11.40
2022-09-24T04:37:50.208Z,12.07
2022-09-24T04:40:17.148Z,12.10
2022-09-24T04:42:47.245Z,11.82
2022-09-24T04:45:17.673Z,12.98
2022-09-24T04:47:44.521Z,13.75
2022-09-24T04:50:11.348Z,12.77
2022-09-24T04:52:38.838Z,13.05
2022-09-24T04:55:06.310Z,13.02
2022-09-24T04:57:34.957Z,12.98
2022-09-24T05:02:28.005Z,11.48
2022-09-24T05:04:54.353Z,13.00
2022-09-24T05:07:20.664Z,13.23
2022-09-24T05:09:47.014Z,12.88
2022-09-24T05:12:14.110Z,13.90
2022-09-24T05:14:40.407Z,14.27
2022-09-24T05:17:06.758Z,15.20
2022-09-24T05:19:33.053Z,14.50
2022-09-24T05:21:59.342Z,13.75
2022-09-24T05:24:25.631Z,13.93
2022-09-24T05:27:10.308Z,12.98
2022-09-24T05:29:41.184Z,12.27
2022-09-24T05:32:13.270Z,11.93
2022-09-24T05:34:41.401Z,13.23
2022-09-24T05:37:07.808Z,13.50
2022-09-24T05:39:34.544Z,13.38
2022-09-24T05:42:04.112Z,12.73
2022-09-24T05:44:31.763Z,12.32
2022-09-24T05:46:58.150Z,13.20
2022-09-24T05:49:24.509Z,12.77
2022-09-24T05:51:51.477Z,12.13
2022-09-24T05:54:18.284Z,13.45
2022-09-24T05:56:45.516Z,13.15
2022-09-24T05:59:12.200Z,13.00
2022-09-24T06:01:40.130Z,13.25
2022-09-24T06:04:17.597Z,13.52
2022-09-24T06:06:44.119Z,12.00
2022-09-24T06:09:10.875Z,13.73
2022-09-24T06:11:40.745Z,12.50
2022-09-24T06:14:08.453Z,13.23
2022-09-24T06:16:35.077Z,13.98
2022-09-24T06:19:01.714Z,13.80
2022-09-24T06:21:28.266Z,23.90
2022-09-24T06:23:54.619Z,16.00
2022-09-24T06:26:21.264Z,15.32
2022-09-24T06:28:47.559Z,13.40
2022-09-24T06:31:13.945Z,15.13
2022-09-24T06:33:40.915Z,13.93
2022-09-24T06:36:07.562Z,13.50
2022-09-24T06:38:35.244Z,13.55
2022-09-24T06:41:03.659Z,14.23
2022-09-24T06:43:31.192Z,14.18
2022-09-24T06:45:58.791Z,13.57
2022-09-24T06:48:26.480Z,21.65
2022-09-24T06:50:53.502Z,15.90
2022-09-24T06:53:20.621Z,17.50
2022-09-24T06:55:47.152Z,14.07
2022-09-24T06:58:22.014Z,14.05
2022-09-24T07:00:53.826Z,13.70
2022-09-24T07:03:20.998Z,13.30
2022-09-24T07:05:47.349Z,14.10
2022-09-24T07:08:13.654Z,14.73
2022-09-24T07:10:50.752Z,13.50
2022-09-24T07:13:17.088Z,13.40
2022-09-24T07:15:44.329Z,14.82
2022-09-24T07:18:11.960Z,14.15
2022-09-24T07:20:38.448Z,14.55
2022-09-24T07:23:06.397Z,13.52
2022-09-24T07:25:33.465Z,13.68
2022-09-24T07:28:08.532Z,14.98
2022-09-24T07:30:36.456Z,14.15
2022-09-24T07:33:03.338Z,16.35
2022-09-24T07:35:30.056Z,14.48
2022-09-24T07:38:00.940Z,14.57
2022-09-24T07:40:28.212Z,14.50
2022-09-24T07:42:55.209Z,15.90
2022-09-24T07:45:23.018Z,16.77
2022-09-24T07:48:00.574Z,13.55
2022-09-24T07:50:28.202Z,14.57
2022-09-24T07:52:55.199Z,14.15
2022-09-24T07:55:22.191Z,15.05
2022-09-24T07:57:55.404Z,14.32
2022-09-24T08:00:23.359Z,14.45
2022-09-24T08:02:50.344Z,14.77
2022-09-24T08:05:17.928Z,15.13
2022-09-24T08:07:52.494Z,15.77
2022-09-24T08:10:19.281Z,15.02
2022-09-24T08:12:45.780Z,16.17
2022-09-24T08:15:12.091Z,16.80
2022-09-24T08:17:38.596Z,15.90
2022-09-24T08:20:05.470Z,16.40
2022-09-24T08:22:31.827Z,18.35
2022-09-24T08:24:58.134Z,16.75
2022-09-24T08:27:25.157Z,17.40
2022-09-24T08:29:52.079Z,18.20
2022-09-24T08:32:18.497Z,18.45
2022-09-24T08:34:45.286Z,16.88
2022-09-24T08:37:13.377Z,18.30
2022-09-24T08:39:40.091Z,18.30
2022-09-24T08:42:13.678Z,18.98
2022-09-24T08:45:02.647Z,18.83
2022-09-24T08:47:45.780Z,18.42
2022-09-24T08:50:24.741Z,17.88
2022-09-24T08:52:58.783Z,18.65
2022-09-24T08:55:38.070Z,18.20
2022-09-24T08:58:10.517Z,18.65
2022-09-24T09:00:46.273Z,18.67
2022-09-24T09:03:25.316Z,18.67
2022-09-24T09:06:33.000Z,18.65
2022-09-24T09:09:12.005Z,17.38
2022-09-24T09:11:40.577Z,17.30
2022-09-24T09:17:02.761Z,14.07
2022-09-24T09:19:34.263Z,16.65
2022-09-24T09:22:17.305Z,16.58
2022-09-24T09:24:48.845Z,16.25
2022-09-24T09:27:17.162Z,17.08
2022-09-24T09:29:51.417Z,17.60
2022-09-24T09:32:40.832Z,15.60
2022-09-24T09:35:22.101Z,14.63
2022-09-24T09:38:23.344Z,14.40
2022-09-24T09:41:04.958Z,14.75
2022-09-24T09:43:31.317Z,12.82
2022-09-24T09:46:15.890Z,14.20
2022-09-24T09:48:51.303Z,14.02
2022-09-24T09:51:25.953Z,13.55
2022-09-24T09:54:00.390Z,14.90
2022-09-24T09:56:30.012Z,15.70
2022-09-24T09:59:11.513Z,14.15
2022-09-24T10:01:43.257Z,13.45
2022-09-24T10:04:34.500Z,12.43
2022-09-24T10:07:16.027Z,12.20
2022-09-24T10:09:43.812Z,12.32
2022-09-24T10:12:15.901Z,13.63
2022-09-24T10:14:42.862Z,12.07
2022-09-24T10:17:18.509Z,13.32
2022-09-24T10:19:50.651Z,13.45
2022-09-24T10:22:27.610Z,12.32
2022-09-24T10:24:59.715Z,12.32
2022-09-24T10:27:36.188Z,12.85
2022-09-24T10:30:31.224Z,12.32
2022-09-24T10:32:59.255Z,12.15
2022-09-24T10:35:28.805Z,12.52
2022-09-24T10:37:58.414Z,12.00
2022-09-24T10:40:30.715Z,12.02
2022-09-24T10:42:59.621Z,12.90
2022-09-24T10:46:05.078Z,12.82
2022-09-24T10:49:01.346Z,14.68
2022-09-24T10:51:48.530Z,14.18
2022-09-24T10:54:40.946Z,14.00
2022-09-24T10:57:34.065Z,14.52
2022-09-24T11:00:09.414Z,13.57
2022-09-24T11:03:08.542Z,12.48
2022-09-24T11:05:45.451Z,12.43
2022-09-24T11:08:23.185Z,12.27
2022-09-24T11:11:40.034Z,12.15
2022-09-24T11:14:35.721Z,12.20
2022-09-24T11:17:35.995Z,11.10
2022-09-24T11:20:22.262Z,11.05
2022-09-24T11:23:01.780Z,12.23
2022-09-24T11:25:39.531Z,11.93
2022-09-24T11:28:41.990Z,12.00
2022-09-24T11:31:30.867Z,11.50
2022-09-24T11:34:06.276Z,10.95
2022-09-24T11:36:55.653Z,11.38
2022-09-24T11:39:24.937Z,11.45
2022-09-24T11:42:09.971Z,11.70
2022-09-24T11:45:15.643Z,12.18
2022-09-24T11:47:41.862Z,11.25
2022-09-24T11:50:26.150Z,12.02
2022-09-24T11:53:14.017Z,13.02
2022-09-24T11:55:45.754Z,12.60
2022-09-24T11:58:30.770Z,12.82
2022-09-24T12:01:25.204Z,12.77
2022-09-24T12:04:30.883Z,10.70
2022-09-24T12:07:12.776Z,12.57
2022-09-24T12:09:45.100Z,13.82
2022-09-24T12:12:20.675Z,13.73
2022-09-24T12:15:05.034Z,13.35
2022-09-24T12:18:03.605Z,15.20
2022-09-24T12:20:31.875Z,15.27
2022-09-24T12:23:12.140Z,16.45
2022-09-24T12:25:45.318Z,16.52
2022-09-24T12:28:14.844Z,17.83
2022-09-24T12:31:09.978Z,17.88
2022-09-24T12:33:57.180Z,18.73
2022-09-24T12:36:57.161Z,16.92
2022-09-24T12:39:29.074Z,17.88
2022-09-24T12:42:01.604Z,17.83
2022-09-24T12:44:42.649Z,18.10
2022-09-24T12:47:24.349Z,18.08
2022-09-24T12:49:57.877Z,17.65
2022-09-24T12:52:39.841Z,18.80
2022-09-24T12:55:20.505Z,20.92
2022-09-24T12:57:56.106Z,19.90
2022-09-24T13:00:34.761Z,19.48
2022-09-24T13:03:02.930Z,16.38
2022-09-24T13:05:45.935Z,16.85
2022-09-24T13:08:16.785Z,17.33
2022-09-24T13:10:55.673Z,18.63
2022-09-24T13:13:27.964Z,17.58
2022-09-24T13:16:06.535Z,18.27
2022-09-24T13:18:37.226Z,18.55
2022-09-24T13:21:18.418Z,16.85
2022-09-24T13:23:47.508Z,16.05
2022-09-24T13:26:28.726Z,16.83
2022-09-24T13:28:58.505Z,16.15
2022-09-24T13:31:35.266Z,16.60
2022-09-24T13:34:12.900Z,16.52
2022-09-24T13:36:54.615Z,16.77
2022-09-24T13:39:44.126Z,15.60
2022-09-24T13:42:23.126Z,14.73
2022-09-24T13:44:52.925Z,16.30
2022-09-24T13:47:45.383Z,16.65
2022-09-24T13:50:24.096Z,15.20
2022-09-24T13:53:01.280Z,16.30
2022-09-24T13:55:38.149Z,16.45
2022-09-24T13:58:04.446Z,15.98
2022-09-24T14:00:32.269Z,15.95
2022-09-24T14:03:20.509Z,16.02
2022-09-24T14:05:47.055Z,16.00
2022-09-24T14:08:15.557Z,16.15
2022-09-24T14:10:42.590Z,15.52
2022-09-24T14:13:08.861Z,15.93
2022-09-24T14:15:36.230Z,16.30
2022-09-24T14:18:02.749Z,16.63
2022-09-24T14:20:35.051Z,15.40
2022-09-24T14:23:04.613Z,15.52
2022-09-24T14:25:34.932Z,16.35
2022-09-24T14:28:02.955Z,15.55
2022-09-24T14:30:32.393Z,15.30
2022-09-24T14:33:15.790Z,15.82
2022-09-24T14:35:46.933Z,14.85
2022-09-24T14:38:29.995Z,15.48
2022-09-24T14:41:05.913Z,13.82
2022-09-24T14:43:41.027Z,14.25
2022-09-24T14:46:18.928Z,15.10
2022-09-24T14:48:45.305Z,14.38
2022-09-24T14:51:26.730Z,13.98
2022-09-24T14:54:19.907Z,14.35
2022-09-24T14:56:46.319Z,13.65
2022-09-24T14:59:26.412Z,13.38
2022-09-24T15:02:15.743Z,14.07
2022-09-24T15:04:47.077Z,14.70
2022-09-24T15:07:21.357Z,14.10
2022-09-24T15:09:53.037Z,13.10
2022-09-24T15:12:26.443Z,12.90
2022-09-24T15:15:24.969Z,11.88
2022-09-24T15:17:51.297Z,12.15
2022-09-24T15:20:17.619Z,12.25
2022-09-24T15:22:46.497Z,12.05
2022-09-24T15:25:14.490Z,12.40
2022-09-24T15:27:44.395Z,12.18
2022-09-24T15:30:18.421Z,12.15
2022-09-24T15:32:45.067Z,11.75
2022-09-24T15:35:14.927Z,12.80
2022-09-24T15:37:41.925Z,12.07
2022-09-24T15:40:15.364Z,12.27
2022-09-24T15:42:41.693Z,12.50
2022-09-24T15:45:34.282Z,12.38
2022-09-24T15:48:00.692Z,12.70
2022-09-24T15:50:27.005Z,12.80
2022-09-24T15:52:57.221Z,13.90
2022-09-24T15:55:24.035Z,13.90
2022-09-24T15:57:50.401Z,13.98
2022-09-24T16:00:18.822Z,15.05
2022-09-24T16:02:50.953Z,14.02
2022-09-24T16:05:18.078Z,13.73
2022-09-24T16:07:44.714Z,13.10
2022-09-24T16:10:13.368Z,15.30
2022-09-24T16:15:06.971Z,14.68
2022-09-24T16:17:33.323Z,15.15
2022-09-24T16:19:59.854Z,15.43
2022-09-24T16:22:26.209Z,16.88
2022-09-24T16:24:53.980Z,17.98
2022-09-24T16:27:20.551Z,17.70
2022-09-24T16:29:46.849Z,17.02
2022-09-24T16:32:13.805Z,18.23
2022-09-24T16:34:40.799Z,18.23
2022-09-24T16:37:08.021Z,18.27
2022-09-24T16:39:34.445Z,17.17
2022-09-24T16:42:01.171Z,16.05
2022-09-24T16:44:27.462Z,16.77
2022-09-24T16:46:53.907Z,16.65
2022-09-24T16:49:22.617Z,15.70
2022-09-24T16:54:15.263Z,14.05
2022-09-24T16:56:41.620Z,15.02
2022-09-24T16:59:10.105Z,17.00
2022-09-24T17:04:02.878Z,15.82
2022-09-24T17:06:30.950Z,18.67
2022-09-24T17:09:16.081Z,17.73
2022-09-24T17:11:42.633Z,18.10
2022-09-24T17:14:12.102Z,17.95
2022-09-24T17:16:39.385Z,16.10
2022-09-24T17:19:07.898Z,17.48
2022-09-24T17:21:35.586Z,17.00
2022-09-24T17:24:02.412Z,16.60
2022-09-24T17:26:28.839Z,18.45
2022-09-24T17:28:55.348Z,18.25
2022-09-24T17:31:24.199Z,17.48
2022-09-24T17:34:09.541Z,17.60
2022-09-24T17:36:37.124Z,16.05
2022-09-24T17:39:05.341Z,16.05
2022-09-24T17:41:31.670Z,15.85
2022-09-24T17:44:00.920Z,17.13
2022-09-24T17:46:29.931Z,16.77
2022-09-24T17:48:58.627Z,17.10
2022-09-24T17:53:53.954Z,17.40
2022-09-24T17:56:22.972Z,17.57
2022-09-24T17:58:49.758Z,18.33
2022-09-24T18:01:19.439Z,18.85
2022-09-24T18:03:46.519Z,19.10
2022-09-24T18:06:14.718Z,18.65
2022-09-24T18:08:45.850Z,18.73
2022-09-24T18:11:15.494Z,18.65
2022-09-24T18:13:41.836Z,20.40
2022-09-24T18:16:09.791Z,20.00
2022-09-24T18:18:36.778Z,20.63
2022-09-24T18:21:08.096Z,20.52
2022-09-24T18:23:35.109Z,20.52
2022-09-24T18:26:10.457Z,20.08
2022-09-24T18:28:39.633Z,20.33
2022-09-24T18:31:08.345Z,22.05
2022-09-24T18:33:36.531Z,21.02
2022-09-24T18:36:04.664Z,19.08
2022-09-24T18:38:31.750Z,18.58
2022-09-24T18:40:59.418Z,19.67
2022-09-24T18:43:26.275Z,19.17
2022-09-24T18:45:52.682Z,20.63
2022-09-24T18:48:19.413Z,19.50
2022-09-24T18:50:45.838Z,21.67
2022-09-24T18:53:12.416Z,21.48
2022-09-24T18:55:40.612Z,21.35
2022-09-24T18:58:07.924Z,21.98
2022-09-24T19:00:54.724Z,23.02
2022-09-24T19:03:22.062Z,25.52
2022-09-24T19:05:51.461Z,26.95
2022-09-24T19:08:20.074Z,27.25
2022-09-24T19:10:48.427Z,25.45
2022-09-24T19:13:16.065Z,23.67
2022-09-24T19:15:43.228Z,21.70
2022-09-24T19:18:16.968Z,21.13
2022-09-24T19:20:45.583Z,21.10
2022-09-24T19:25:40.241Z,16.42
2022-09-24T19:28:08.866Z,17.45
2022-09-24T19:33:15.634Z,17.25
2022-09-24T19:35:47.100Z,15.80
2022-09-24T19:38:16.535Z,15.32
2022-09-24T19:40:43.057Z,14.32
2022-09-24T19:43:09.501Z,15.27
2022-09-24T19:45:37.157Z,15.80
2022-09-24T19:48:03.546Z,14.23
2022-09-24T19:50:34.177Z,17.88
2022-09-24T19:53:00.545Z,16.13
2022-09-24T19:55:28.783Z,15.25
2022-09-24T19:57:56.265Z,15.73
2022-09-24T20:00:24.893Z,14.93
2022-09-24T20:05:18.597Z,16.25
2022-09-24T20:07:45.719Z,15.43
2022-09-24T20:10:12.047Z,15.80
2022-09-24T20:12:39.174Z,15.93
2022-09-24T20:15:06.556Z,16.75
2022-09-24T20:17:32.874Z,16.50
2022-09-24T20:20:00.957Z,16.00
2022-09-24T20:22:27.260Z,16.13
2022-09-24T20:24:53.570Z,15.00
2022-09-24T20:27:38.541Z,15.35
2022-09-24T20:30:05.307Z,15.38
2022-09-24T20:32:31.790Z,15.63
2022-09-24T20:35:01.016Z,15.07
2022-09-24T20:37:28.092Z,17.55
2022-09-24T20:39:54.446Z,16.48
2022-09-24T20:42:20.796Z,16.70
2022-09-24T20:44:48.822Z,16.35
2022-09-24T20:47:15.491Z,16.13
2022-09-24T20:49:41.846Z,16.92
2022-09-24T20:52:08.209Z,16.63
2022-09-24T20:54:34.604Z,17.48
2022-09-24T20:57:01.847Z,17.10
2022-09-24T20:59:28.160Z,16.38
2022-09-24T21:01:54.593Z,17.65
2022-09-24T21:04:21.104Z,17.38
2022-09-24T21:06:47.935Z,18.05
2022-09-24T21:09:14.625Z,18.25
2022-09-24T21:11:41.916Z,17.35
2022-09-24T21:14:10.846Z,18.67
2022-09-24T21:16:37.353Z,16.92
2022-09-24T21:19:05.617Z,18.33
2022-09-24T21:21:35.081Z,18.55
2022-09-24T21:24:01.803Z,17.83
2022-09-24T21:26:30.401Z,18.05
2022-09-24T21:31:49.333Z,17.50
2022-09-24T21:34:17.503Z,18.48
2022-09-24T21:36:45.577Z,17.20
2022-09-24T21:39:17.528Z,18.58
2022-09-24T21:41:45.434Z,17.02
2022-09-24T21:44:14.340Z,18.63
2022-09-24T21:46:42.880Z,18.75
2022-09-24T21:51:36.704Z,16.40
2022-09-24T21:54:06.483Z,17.13
2022-09-24T21:56:35.275Z,16.70
2022-09-24T21:59:02.106Z,16.70
2022-09-24T22:01:31.297Z,17.55
2022-09-24T22:03:59.356Z,16.63
2022-09-24T22:06:28.713Z,17.65
2022-09-24T22:08:57.842Z,17.50
2022-09-24T22:11:26.229Z,17.20
2022-09-24T22:13:53.406Z,16.98
2022-09-24T22:16:20.118Z,17.90
2022-09-24T22:18:46.459Z,16.52
2022-09-24T22:21:14.494Z,16.45
2022-09-24T22:23:41.380Z,17.45
2022-09-24T22:26:09.756Z,18.05
2022-09-24T22:28:37.773Z,16.83
2022-09-24T22:31:07.095Z,18.05
2022-09-24T22:33:52.379Z,17.33
2022-09-24T22:36:19.262Z,16.85
2022-09-24T22:38:45.855Z,17.25
2022-09-24T22:41:12.289Z,17.25
2022-09-24T22:43:39.626Z,17.13
2022-09-24T22:46:08.680Z,17.05
2022-09-24T22:48:35.695Z,17.17
2022-09-24T22:51:03.128Z,17.27
2022-09-24T22:53:32.494Z,17.88
2022-09-24T22:56:11.277Z,17.38
2022-09-24T22:58:41.123Z,17.05
2022-09-24T23:01:09.646Z,16.75
2022-09-24T23:06:05.889Z,15.68
2022-09-24T23:08:33.681Z,15.73
2022-09-24T23:11:24.482Z,15.65
2022-09-24T23:13:54.778Z,15.82
2022-09-24T23:16:24.476Z,17.00
2022-09-24T23:18:53.733Z,17.38
2022-09-24T23:21:22.202Z,16.48
2022-09-24T23:23:53.851Z,17.05
2022-09-24T23:26:21.222Z,17.35
2022-09-24T23:28:50.941Z,17.05
2022-09-24T23:31:20.814Z,17.92
2022-09-24T23:33:48.117Z,16.88
2022-09-24T23:36:15.130Z,17.70
2022-09-24T23:38:42.352Z,18.45
2022-09-24T23:41:10.829Z,18.58
2022-09-24T23:43:37.262Z,17.98
2022-09-24T23:46:04.182Z,18.15
2022-09-24T23:48:31.438Z,18.25
2022-09-24T23:50:58.289Z,18.55
2022-09-24T23:53:25.732Z,17.90
2022-09-24T23:55:53.055Z,18.52
2022-09-24T23:58:20.659Z,17.92
